New York, New York
Traffic Map
Current Weather Conditions
New York, New York
Clear
Clear
26°
Feels Like: 27°
Wind Chill: 26° Ceiling: Unl
Heat Index: 27° Visibility: 10mi
Dew Point: 14° Wind: 0mph
Humidity: 48% Direction: ° ()
Pressure: 29.92in Gusts: 0mph
Raw Report DataKNYC 021751Z AUTO 00000KT 10SM CLR 26/14 A2992 RMK AO2 SLP120 T02610144 10267 20217 56010 $
Traffic Incident Summary
Active as of:
Severity:
Category:
InformationThere was an issue retrieving the traffic information for this location. Please try a different location or try again shortly.
Advertisements
Track Severe Weather on mobile